createdAt,value
2019-04-11T00:01:35.922Z,10.58
2019-04-11T00:03:57.717Z,11.40
2019-04-11T00:06:26.330Z,10.78
2019-04-11T00:08:54.771Z,10.00
2019-04-11T00:11:23.925Z,11.48
2019-04-11T00:13:53.604Z,10.48
2019-04-11T00:16:23.386Z,13.72
2019-04-11T00:18:52.315Z,11.33
2019-04-11T00:21:20.759Z,12.30
2019-04-11T00:23:50.199Z,10.68
2019-04-11T00:26:18.867Z,14.70
2019-04-11T00:28:47.987Z,10.15
2019-04-11T00:31:16.810Z,13.43
2019-04-11T00:33:46.565Z,13.22
2019-04-11T00:36:15.107Z,10.32
2019-04-11T00:38:43.573Z,12.10
2019-04-11T00:41:12.046Z,10.28
2019-04-11T00:43:43.634Z,10.63
2019-04-11T00:46:11.944Z,12.93
2019-04-11T00:48:41.760Z,10.25
2019-04-11T00:51:11.828Z,12.10
2019-04-11T00:53:40.379Z,10.03
2019-04-11T00:56:09.745Z,10.85
2019-04-11T00:58:39.236Z,11.43
2019-04-11T01:01:07.763Z,11.08
2019-04-11T01:03:36.281Z,8.65
2019-04-11T01:06:05.781Z,10.70
2019-04-11T01:08:35.613Z,12.63
2019-04-11T01:11:05.932Z,13.93
2019-04-11T01:13:44.599Z,11.73
2019-04-11T01:16:09.117Z,16.40
2019-04-11T01:18:40.346Z,10.32
2019-04-11T01:21:10.229Z,14.50
2019-04-11T01:23:39.475Z,11.35
2019-04-11T01:26:08.728Z,12.63
2019-04-11T01:28:37.316Z,10.55
2019-04-11T01:31:07.628Z,12.82
2019-04-11T01:33:36.143Z,14.28
2019-04-11T01:36:04.944Z,11.22
2019-04-11T01:38:38.673Z,14.65
2019-04-11T01:41:07.732Z,13.35
2019-04-11T01:43:36.169Z,15.32
2019-04-11T01:46:05.689Z,11.45
2019-04-11T01:48:36.011Z,11.73
2019-04-11T01:51:05.371Z,13.30
2019-04-11T01:53:35.169Z,13.58
2019-04-11T01:56:05.556Z,12.25
2019-04-11T01:58:35.025Z,12.07
2019-04-11T02:01:12.632Z,12.98
2019-04-11T02:03:49.748Z,17.10
2019-04-11T02:06:18.581Z,12.05
2019-04-11T02:08:47.252Z,14.83
2019-04-11T02:11:17.100Z,11.33
2019-04-11T02:13:46.012Z,13.13
2019-04-11T02:16:14.680Z,10.60
2019-04-11T02:18:43.685Z,12.65
2019-04-11T02:21:13.631Z,13.30
2019-04-11T02:24:03.597Z,13.03
2019-04-11T02:26:37.718Z,12.00
2019-04-11T02:29:06.543Z,13.48
2019-04-11T02:31:36.780Z,12.70
2019-04-11T02:34:08.383Z,14.65
2019-04-11T02:36:38.398Z,11.40
2019-04-11T02:39:12.890Z,12.93
2019-04-11T02:41:42.190Z,14.75
2019-04-11T02:44:28.645Z,16.32
2019-04-11T02:46:50.379Z,15.65
2019-04-11T02:49:11.549Z,13.72
2019-04-11T02:51:40.638Z,16.85
2019-04-11T02:54:09.172Z,13.35
2019-04-11T02:56:37.888Z,12.68
2019-04-11T02:59:08.896Z,19.00
2019-04-11T03:01:37.790Z,12.73
2019-04-11T03:04:07.422Z,16.37
2019-04-11T03:06:36.195Z,17.15
2019-04-11T03:09:07.038Z,16.62
2019-04-11T03:11:36.428Z,18.57
2019-04-11T03:14:07.454Z,15.83
2019-04-11T03:16:49.284Z,15.25
2019-04-11T03:19:21.113Z,16.02
2019-04-11T03:21:41.276Z,16.40
2019-04-11T03:24:10.709Z,15.95
2019-04-11T03:26:38.637Z,19.05
2019-04-11T03:29:08.752Z,14.55
2019-04-11T03:35:02.933Z,16.65
2019-04-11T03:39:29.007Z,17.35
2019-04-11T03:41:56.570Z,21.85
2019-04-11T03:44:20.537Z,16.75
2019-04-11T03:46:53.950Z,18.30
2019-04-11T03:49:24.653Z,21.10
2019-04-11T03:51:45.005Z,21.75
2019-04-11T03:54:15.607Z,20.27
2019-04-11T03:56:45.830Z,23.12
2019-04-11T03:59:16.567Z,22.90
2019-04-11T04:01:46.585Z,20.37
2019-04-11T04:04:17.722Z,21.57
2019-04-11T04:06:47.640Z,20.80
2019-04-11T04:09:17.064Z,25.15
2019-04-11T04:11:49.373Z,23.10
2019-04-11T04:14:32.598Z,21.87
2019-04-11T04:17:21.274Z,22.35
2019-04-11T04:19:59.399Z,26.35
2019-04-11T04:22:31.436Z,18.50
2019-04-11T04:25:01.091Z,20.55
2019-04-11T04:27:32.721Z,21.48
2019-04-11T04:30:05.114Z,20.67
2019-04-11T04:32:33.063Z,22.60
2019-04-11T04:35:01.877Z,32.83
2019-04-11T04:37:34.092Z,28.42
2019-04-11T04:40:23.991Z,23.77
2019-04-11T04:42:40.196Z,23.52
2019-04-11T04:45:09.015Z,29.92
2019-04-11T04:47:46.194Z,31.75
2019-04-11T04:50:08.775Z,28.70
2019-04-11T04:52:38.213Z,26.95
2019-04-11T04:55:08.591Z,25.52
2019-04-11T04:57:37.751Z,26.75
2019-04-11T05:00:09.223Z,26.95
2019-04-11T05:02:39.647Z,23.40
2019-04-11T05:05:09.489Z,23.30
2019-04-11T05:07:40.848Z,23.83
2019-04-11T05:10:09.155Z,27.98
2019-04-11T05:12:38.819Z,27.70
2019-04-11T05:15:10.321Z,32.28
2019-04-11T05:17:40.425Z,28.67
2019-04-11T05:20:09.321Z,27.52
2019-04-11T05:22:37.814Z,25.55
2019-04-11T05:25:06.753Z,30.10
2019-04-11T05:27:35.791Z,30.35
2019-04-11T05:30:05.603Z,27.48
2019-04-11T05:32:34.137Z,29.98
2019-04-11T05:35:06.942Z,28.83
2019-04-11T05:37:36.331Z,27.60
2019-04-11T05:40:09.293Z,33.13
2019-04-11T05:42:37.896Z,31.85
2019-04-11T05:45:11.602Z,30.57
2019-04-11T05:47:37.328Z,27.17
2019-04-11T05:50:11.992Z,31.77
2019-04-11T05:52:39.995Z,28.85
2019-04-11T05:55:13.551Z,26.93
2019-04-11T05:57:43.056Z,28.90
2019-04-11T06:00:23.497Z,30.68
2019-04-11T06:02:57.541Z,25.25
2019-04-11T06:05:32.529Z,28.50
2019-04-11T06:08:00.441Z,29.00
2019-04-11T06:10:46.837Z,27.27
2019-04-11T06:13:20.998Z,29.60
2019-04-11T06:16:02.621Z,29.02
2019-04-11T06:18:46.632Z,36.03
2019-04-11T06:21:22.043Z,32.33
2019-04-11T06:24:04.535Z,25.08
2019-04-11T06:26:34.700Z,32.83
2019-04-11T06:29:14.776Z,28.15
2019-04-11T06:31:45.707Z,25.97
2019-04-11T06:34:15.467Z,30.02
2019-04-11T06:36:46.903Z,27.67
2019-04-11T06:39:33.985Z,26.23
2019-04-11T06:42:05.859Z,29.95
2019-04-11T06:44:43.220Z,23.42
2019-04-11T06:47:13.457Z,24.85
2019-04-11T06:49:53.017Z,26.82
2019-04-11T06:52:24.443Z,22.75
2019-04-11T06:55:12.771Z,27.80
2019-04-11T06:57:43.004Z,24.20
2019-04-11T07:00:14.857Z,27.85
2019-04-11T07:02:48.679Z,24.18
2019-04-11T07:05:18.331Z,27.00
2019-04-11T07:07:51.653Z,24.63
2019-04-11T07:10:26.435Z,23.95
2019-04-11T07:13:00.681Z,21.85
2019-04-11T07:15:31.551Z,22.75
2019-04-11T07:18:18.353Z,18.62
2019-04-11T07:20:52.365Z,21.80
2019-04-11T07:23:39.049Z,20.35
2019-04-11T07:26:25.120Z,18.17
2019-04-11T07:28:56.483Z,20.70
2019-04-11T07:31:44.230Z,22.60
2019-04-11T07:34:33.959Z,20.20
2019-04-11T07:37:06.826Z,21.37
2019-04-11T07:39:53.875Z,19.87
2019-04-11T07:42:41.130Z,17.75
2019-04-11T07:45:17.396Z,18.60
2019-04-11T07:47:50.416Z,17.57
2019-04-11T07:50:19.880Z,25.20
2019-04-11T07:52:54.239Z,19.67
2019-04-11T07:55:24.167Z,19.00
2019-04-11T07:57:54.693Z,17.15
2019-04-11T08:00:36.582Z,17.98
2019-04-11T08:02:59.788Z,17.20
2019-04-11T08:05:46.684Z,18.80
2019-04-11T08:08:30.138Z,20.17
2019-04-11T08:11:06.682Z,16.90
2019-04-11T08:13:39.404Z,18.07
2019-04-11T08:16:26.727Z,15.83
2019-04-11T08:19:01.370Z,20.02
2019-04-11T08:21:35.726Z,13.48
2019-04-11T08:24:07.820Z,16.97
2019-04-11T08:26:50.586Z,17.87
2019-04-11T08:29:22.200Z,17.75
2019-04-11T08:32:09.639Z,11.15
2019-04-11T08:34:46.139Z,16.52
2019-04-11T08:37:34.112Z,19.00
2019-04-11T08:40:04.502Z,16.62
2019-04-11T08:42:50.920Z,17.17
2019-04-11T08:45:21.585Z,17.50
2019-04-11T08:47:55.655Z,14.45
2019-04-11T08:50:23.830Z,15.88
2019-04-11T08:52:56.488Z,13.90
2019-04-11T08:55:27.355Z,15.90
2019-04-11T08:57:58.317Z,14.65
2019-04-11T09:00:38.092Z,15.60
2019-04-11T09:03:18.040Z,11.33
2019-04-11T09:05:54.060Z,16.17
2019-04-11T09:08:30.171Z,14.83
2019-04-11T09:11:17.028Z,10.85
2019-04-11T09:13:51.897Z,13.90
2019-04-11T09:16:37.455Z,14.18
2019-04-11T09:19:20.959Z,14.07
2019-04-11T09:22:08.774Z,10.67
2019-04-11T09:24:41.530Z,10.95
2019-04-11T09:27:25.101Z,11.93
2019-04-11T09:30:09.802Z,8.93
2019-04-11T09:32:56.232Z,12.45
2019-04-11T09:35:33.387Z,12.47
2019-04-11T09:38:04.384Z,12.23
2019-04-11T09:40:41.635Z,9.38
2019-04-11T09:43:19.863Z,11.30
2019-04-11T09:45:51.429Z,14.07
2019-04-11T09:48:37.924Z,11.60
2019-04-11T09:51:26.455Z,12.70
2019-04-11T09:54:05.950Z,8.58
2019-04-11T09:57:13.327Z,12.25
2019-04-11T09:59:43.566Z,8.25
2019-04-11T10:02:31.089Z,12.75
2019-04-11T10:05:02.609Z,10.98
2019-04-11T10:07:42.593Z,13.40
2019-04-11T10:10:19.051Z,13.22
2019-04-11T10:12:49.546Z,11.63
2019-04-11T10:15:20.961Z,9.53
2019-04-11T10:18:19.578Z,11.22
2019-04-11T10:20:40.497Z,9.55
2019-04-11T10:23:10.721Z,14.13
2019-04-11T10:25:40.590Z,12.82
2019-04-11T10:28:19.839Z,10.90
2019-04-11T10:31:02.470Z,20.70
2019-04-11T10:33:41.728Z,13.32
2019-04-11T10:36:12.632Z,13.88
2019-04-11T10:38:41.093Z,11.00
2019-04-11T10:41:23.072Z,10.27
2019-04-11T10:43:53.783Z,11.30
2019-04-11T10:46:40.328Z,12.73
2019-04-11T10:49:22.262Z,13.35
2019-04-11T10:51:58.189Z,15.08
2019-04-11T10:54:29.686Z,9.90
2019-04-11T10:57:13.837Z,16.65
2019-04-11T10:59:44.931Z,10.53
2019-04-11T11:02:18.099Z,11.83
2019-04-11T11:04:48.493Z,11.43
2019-04-11T11:07:18.396Z,13.90
2019-04-11T11:09:48.896Z,10.72
2019-04-11T11:12:27.950Z,10.50
2019-04-11T11:15:07.300Z,11.97
2019-04-11T11:18:24.034Z,11.38
2019-04-11T11:20:41.526Z,10.95
2019-04-11T11:23:18.327Z,13.68
2019-04-11T11:25:50.462Z,12.28
2019-04-11T11:28:26.762Z,11.90
2019-04-11T11:31:12.061Z,11.40
2019-04-11T11:33:42.673Z,9.43
2019-04-11T11:36:33.100Z,10.15
2019-04-11T11:39:02.445Z,11.50
2019-04-11T11:41:48.975Z,10.63
2019-04-11T11:44:19.492Z,9.25
2019-04-11T11:46:55.519Z,9.15
2019-04-11T11:49:42.415Z,11.97
2019-04-11T11:51:58.433Z,10.32
2019-04-11T11:54:29.499Z,10.50
2019-04-11T11:57:00.594Z,11.73
2019-04-11T11:59:34.473Z,10.08
2019-04-11T12:02:10.672Z,10.35
2019-04-11T12:04:44.309Z,10.80
2019-04-11T12:07:14.754Z,9.18
2019-04-11T12:10:01.077Z,18.48
2019-04-11T12:12:36.185Z,12.23
2019-04-11T12:15:07.750Z,18.58
2019-04-11T12:17:54.703Z,9.68
2019-04-11T12:20:25.191Z,13.80
2019-04-11T12:22:54.159Z,10.00
2019-04-11T12:25:41.131Z,14.43
2019-04-11T12:28:15.263Z,13.08
2019-04-11T12:30:45.560Z,12.18
2019-04-11T12:33:19.368Z,14.05
2019-04-11T12:35:52.732Z,10.40
2019-04-11T12:38:39.011Z,12.07
2019-04-11T12:41:11.964Z,11.28
2019-04-11T12:44:01.648Z,12.67
2019-04-11T12:46:47.893Z,13.32
2019-04-11T12:49:23.520Z,12.25
2019-04-11T12:52:09.945Z,12.45
2019-04-11T12:54:42.565Z,12.03
2019-04-11T12:57:24.649Z,10.77
2019-04-11T13:00:06.604Z,11.78
2019-04-11T13:02:42.000Z,12.78
2019-04-11T13:05:12.246Z,12.80
2019-04-11T13:07:42.456Z,12.73
2019-04-11T13:10:14.012Z,13.62
2019-04-11T13:12:52.393Z,11.15
2019-04-11T13:15:30.332Z,11.30
2019-04-11T13:18:00.455Z,12.53
2019-04-11T13:20:42.325Z,10.60
2019-04-11T13:23:13.627Z,11.73
2019-04-11T13:25:59.954Z,13.13
2019-04-11T13:28:30.113Z,12.20
2019-04-11T13:31:16.704Z,8.73
2019-04-11T13:33:46.052Z,15.78
2019-04-11T13:36:32.379Z,10.98
2019-04-11T13:39:03.110Z,12.63
2019-04-11T13:41:32.833Z,11.88
2019-04-11T13:44:02.785Z,10.95
2019-04-11T13:46:36.902Z,10.05
2019-04-11T13:49:23.179Z,11.78
2019-04-11T13:51:56.376Z,11.90
2019-04-11T13:54:41.576Z,9.20
2019-04-11T13:57:26.705Z,15.85
2019-04-11T14:00:13.758Z,10.32
2019-04-11T14:02:51.399Z,9.50
2019-04-11T14:05:20.242Z,15.43
2019-04-11T14:07:52.133Z,10.63
2019-04-11T14:10:23.284Z,11.00
2019-04-11T14:12:53.380Z,10.70
2019-04-11T14:15:23.119Z,9.30
2019-04-11T14:17:56.024Z,9.47
2019-04-11T14:20:32.861Z,11.53
2019-04-11T14:23:03.109Z,10.40
2019-04-11T14:25:49.585Z,11.33
2019-04-11T14:28:19.752Z,12.33
2019-04-11T14:31:05.172Z,12.85
2019-04-11T14:33:35.359Z,12.10
2019-04-11T14:36:32.866Z,10.05
2019-04-11T14:38:54.711Z,10.13
2019-04-11T14:41:42.605Z,10.32
2019-04-11T14:44:11.053Z,9.50
2019-04-11T14:46:57.894Z,13.88
2019-04-11T14:49:27.804Z,9.15
2019-04-11T14:51:58.714Z,9.03
2019-04-11T14:54:30.091Z,11.70
2019-04-11T14:57:07.615Z,10.63
2019-04-11T14:59:38.466Z,12.28
2019-04-11T15:02:19.018Z,10.68
2019-04-11T15:04:49.854Z,11.93
2019-04-11T15:07:21.195Z,11.88
2019-04-11T15:09:57.629Z,9.53
2019-04-11T15:12:31.107Z,10.63
2019-04-11T15:15:19.297Z,9.28
2019-04-11T15:17:55.555Z,11.63
2019-04-11T15:20:27.939Z,10.10
2019-04-11T15:23:09.065Z,9.73
2019-04-11T15:25:44.924Z,9.63
2019-04-11T15:28:33.031Z,12.25
2019-04-11T15:31:19.808Z,10.78
2019-04-11T15:33:50.068Z,10.98
2019-04-11T15:36:21.460Z,13.55
2019-04-11T15:38:54.317Z,9.13
2019-04-11T15:41:22.770Z,17.27
2019-04-11T15:44:09.035Z,9.95
2019-04-11T15:46:39.157Z,8.95
2019-04-11T15:49:30.306Z,11.25
2019-04-11T15:51:56.204Z,10.90
2019-04-11T15:54:39.343Z,10.40
2019-04-11T15:57:12.736Z,10.20
2019-04-11T15:59:44.026Z,8.75
2019-04-11T16:02:23.854Z,8.23
2019-04-11T16:05:01.904Z,10.98
2019-04-11T16:07:40.465Z,9.88
2019-04-11T16:10:11.887Z,9.05
2019-04-11T16:12:52.236Z,8.05
2019-04-11T16:15:23.338Z,8.78
2019-04-11T16:17:53.629Z,10.03
2019-04-11T16:20:27.059Z,8.77
2019-04-11T16:23:06.509Z,8.95
2019-04-11T16:25:35.457Z,8.05
2019-04-11T16:28:21.760Z,7.85
2019-04-11T16:30:51.991Z,8.58
2019-04-11T16:33:34.095Z,8.60
2019-04-11T16:36:10.008Z,10.75
2019-04-11T16:38:52.029Z,7.60
2019-04-11T16:41:25.362Z,6.60
2019-04-11T16:43:55.519Z,11.43
2019-04-11T16:46:41.216Z,10.32
2019-04-11T16:49:09.874Z,6.47
2019-04-11T16:51:39.805Z,12.70
2019-04-11T16:54:09.766Z,6.95
2019-04-11T16:56:38.648Z,7.53
2019-04-11T16:59:07.657Z,6.72
2019-04-11T17:01:36.355Z,7.40
2019-04-11T17:04:04.946Z,6.87
2019-04-11T17:06:41.077Z,7.17
2019-04-11T17:09:27.192Z,8.90
2019-04-11T17:11:58.089Z,9.45
2019-04-11T17:14:28.138Z,7.97
2019-04-11T17:17:00.661Z,8.03
2019-04-11T17:19:27.119Z,9.60
2019-04-11T17:21:55.618Z,7.90
2019-04-11T17:24:24.807Z,8.63
2019-04-11T17:26:53.420Z,9.05
2019-04-11T17:29:24.660Z,7.78
2019-04-11T17:31:55.650Z,7.53
2019-04-11T17:34:22.686Z,9.40
2019-04-11T17:36:51.154Z,9.00
2019-04-11T17:39:19.629Z,9.80
2019-04-11T17:41:49.451Z,11.10
2019-04-11T17:44:17.938Z,14.25
2019-04-11T17:46:46.389Z,8.05
2019-04-11T17:49:14.851Z,13.28
2019-04-11T17:51:55.355Z,11.68
2019-04-11T17:54:15.367Z,8.00
2019-04-11T17:56:43.849Z,8.55
2019-04-11T17:59:12.409Z,13.35
2019-04-11T18:01:41.036Z,10.28
2019-04-11T18:04:13.238Z,10.18
2019-04-11T18:06:39.710Z,9.13
2019-04-11T18:09:11.057Z,10.10
2019-04-11T18:11:40.036Z,11.00
2019-04-11T18:14:08.648Z,13.70
2019-04-11T18:16:38.816Z,12.10
2019-04-11T18:19:09.686Z,9.63
2019-04-11T18:21:37.713Z,9.70
2019-04-11T18:24:06.491Z,11.40
2019-04-11T18:26:35.088Z,12.25
2019-04-11T18:29:04.540Z,9.23
2019-04-11T18:31:33.346Z,14.10
2019-04-11T18:34:02.612Z,9.45
2019-04-11T18:36:32.042Z,9.28
2019-04-11T18:39:05.617Z,11.60
2019-04-11T18:41:31.526Z,10.40
2019-04-11T18:43:59.985Z,10.63
2019-04-11T18:46:28.530Z,12.03
2019-04-11T18:48:57.084Z,11.08
2019-04-11T18:51:25.691Z,10.23
2019-04-11T18:53:54.251Z,9.13
2019-04-11T18:56:22.801Z,8.73
2019-04-11T18:58:51.297Z,11.63
2019-04-11T19:01:20.081Z,13.80
2019-04-11T19:03:48.740Z,18.92
2019-04-11T19:06:27.447Z,11.80
2019-04-11T19:08:47.585Z,13.30
2019-04-11T19:11:16.351Z,10.80
2019-04-11T19:13:47.023Z,11.65
2019-04-11T19:16:16.100Z,11.53
2019-04-11T19:18:47.698Z,11.35
2019-04-11T19:21:20.071Z,12.18
2019-04-11T19:23:46.231Z,12.03
2019-04-11T19:26:15.327Z,13.10
2019-04-11T19:28:43.893Z,9.13
2019-04-11T19:31:12.566Z,11.83
2019-04-11T19:33:41.111Z,11.60
2019-04-11T19:36:10.013Z,11.35
2019-04-11T19:38:43.054Z,11.08
2019-04-11T19:41:10.885Z,12.13
2019-04-11T19:43:40.951Z,11.03
2019-04-11T19:46:09.583Z,13.50
2019-04-11T19:48:38.108Z,14.78
2019-04-11T19:51:06.650Z,9.83
2019-04-11T19:53:36.076Z,10.25
2019-04-11T19:56:11.929Z,12.18
2019-04-11T19:58:40.467Z,10.45
2019-04-11T20:01:09.027Z,13.22
2019-04-11T20:03:37.507Z,11.20
2019-04-11T20:06:06.091Z,10.40
2019-04-11T20:08:34.761Z,11.73
2019-04-11T20:11:03.383Z,12.75
2019-04-11T20:13:32.309Z,16.77
2019-04-11T20:16:01.590Z,14.63
2019-04-11T20:18:30.133Z,13.55
2019-04-11T20:20:58.955Z,13.80
2019-04-11T20:23:27.569Z,9.98
2019-04-11T20:25:56.120Z,12.03
2019-04-11T20:28:26.672Z,11.33
2019-04-11T20:30:54.900Z,13.55
2019-04-11T20:33:27.465Z,11.03
2019-04-11T20:35:53.727Z,11.85
2019-04-11T20:38:23.865Z,13.75
2019-04-11T20:40:53.832Z,9.58
2019-04-11T20:43:24.992Z,11.30
2019-04-11T20:45:53.603Z,11.97
2019-04-11T20:48:22.379Z,11.53
2019-04-11T20:50:51.036Z,10.32
2019-04-11T20:53:19.486Z,10.70
2019-04-11T20:55:47.960Z,12.37
2019-04-11T20:58:39.743Z,13.22
2019-04-11T21:01:07.591Z,12.95
2019-04-11T21:03:36.068Z,14.70
2019-04-11T21:06:04.822Z,15.08
2019-04-11T21:08:33.941Z,13.80
2019-04-11T21:11:05.378Z,14.83
2019-04-11T21:13:38.105Z,14.30
2019-04-11T21:16:05.101Z,12.55
2019-04-11T21:18:33.728Z,11.95
2019-04-11T21:21:02.182Z,12.73
2019-04-11T21:23:30.657Z,13.53
2019-04-11T21:25:59.687Z,13.35
2019-04-11T21:28:30.299Z,14.38
2019-04-11T21:31:00.135Z,15.03
2019-04-11T21:33:29.210Z,13.78
2019-04-11T21:35:57.763Z,10.68
2019-04-11T21:38:28.079Z,12.82
2019-04-11T21:40:56.370Z,12.73
2019-04-11T21:43:44.200Z,12.43
2019-04-11T21:46:12.680Z,12.95
2019-04-11T21:48:41.131Z,11.30
2019-04-11T21:51:11.387Z,13.38
2019-04-11T21:53:44.216Z,12.40
2019-04-11T21:56:10.258Z,13.62
2019-04-11T21:58:38.700Z,12.03
2019-04-11T22:01:10.319Z,14.18
2019-04-11T22:03:38.990Z,11.25
2019-04-11T22:06:07.641Z,11.75
2019-04-11T22:08:36.115Z,12.00
2019-04-11T22:11:09.822Z,12.43
2019-04-11T22:13:38.011Z,13.13
2019-04-11T22:16:07.422Z,13.40
2019-04-11T22:18:37.498Z,13.20
2019-04-11T22:21:07.659Z,12.85
2019-04-11T22:23:48.108Z,15.10
2019-04-11T22:26:06.340Z,14.25
2019-04-11T22:28:37.540Z,15.43
2019-04-11T22:31:06.092Z,12.58
2019-04-11T22:33:39.618Z,12.78
2019-04-11T22:38:35.831Z,13.53
2019-04-11T22:41:04.703Z,16.40
2019-04-11T22:43:33.170Z,14.90
2019-04-11T22:46:01.731Z,19.57
2019-04-11T22:48:30.265Z,17.27
2019-04-11T22:50:58.854Z,19.37
2019-04-11T22:53:27.467Z,14.23
2019-04-11T22:55:56.934Z,14.83
2019-04-11T22:58:25.373Z,13.43
2019-04-11T23:00:54.016Z,14.63
2019-04-11T23:03:28.077Z,13.38
2019-04-11T23:05:56.640Z,15.20
2019-04-11T23:08:25.527Z,19.07
2019-04-11T23:10:54.581Z,16.27
2019-04-11T23:13:23.614Z,15.20
2019-04-11T23:15:52.409Z,18.87
2019-04-11T23:18:20.962Z,17.82
2019-04-11T23:20:49.515Z,15.15
2019-04-11T23:23:18.051Z,14.10
2019-04-11T23:25:48.643Z,11.78
2019-04-11T23:28:17.084Z,14.65
2019-04-11T23:30:49.566Z,12.68
2019-04-11T23:33:15.722Z,12.43
2019-04-11T23:35:44.210Z,10.98
2019-04-11T23:38:12.736Z,11.48
2019-04-11T23:40:41.216Z,16.45
2019-04-11T23:43:10.326Z,13.10
2019-04-11T23:45:38.797Z,12.85
2019-04-11T23:48:08.838Z,11.93
2019-04-11T23:50:37.428Z,11.45
2019-04-11T23:53:05.902Z,12.75
2019-04-11T23:55:34.546Z,14.35
2019-04-11T23:58:03.003Z,13.00
